createdAt,value
2019-01-03T00:00:30.275Z,69.29
2019-01-03T00:03:18.074Z,69.50
2019-01-03T00:06:14.694Z,70.08
2019-01-03T00:09:09.934Z,70.19
2019-01-03T00:12:02.781Z,70.10
2019-01-03T00:14:50.503Z,69.93
2019-01-03T00:17:38.637Z,69.86
2019-01-03T00:20:26.042Z,69.96
2019-01-03T00:23:18.255Z,69.92
2019-01-03T00:26:08.721Z,69.95
2019-01-03T00:29:02.893Z,70.13
2019-01-03T00:31:51.088Z,70.02
2019-01-03T00:34:40.880Z,70.18
2019-01-03T00:37:39.138Z,70.33
2019-01-03T00:40:26.779Z,70.51
2019-01-03T00:43:30.983Z,70.79
2019-01-03T00:46:32.918Z,70.92
2019-01-03T00:49:26.313Z,71.01
2019-01-03T00:52:35.459Z,71.06
2019-01-03T00:55:27.238Z,71.23
2019-01-03T00:58:22.004Z,71.22
2019-01-03T01:01:15.058Z,71.47
2019-01-03T01:04:08.696Z,71.46
2019-01-03T01:07:08.981Z,71.29
2019-01-03T01:09:57.026Z,71.40
2019-01-03T01:12:45.847Z,71.54
2019-01-03T01:15:38.841Z,71.67
2019-01-03T01:18:30.245Z,72.00
2019-01-03T01:24:15.039Z,72.06
2019-01-03T01:27:03.072Z,72.22
2019-01-03T01:29:51.016Z,72.37
2019-01-03T01:32:58.268Z,72.40
2019-01-03T01:35:39.279Z,72.37
2019-01-03T01:38:27.111Z,72.60
2019-01-03T01:41:22.146Z,72.76
2019-01-03T01:44:11.335Z,72.82
2019-01-03T01:47:00.930Z,72.78
2019-01-03T01:49:46.885Z,72.41
2019-01-03T01:52:46.039Z,72.29
2019-01-03T01:55:50.749Z,72.48
2019-01-03T01:58:38.596Z,72.44
2019-01-03T02:01:35.262Z,72.60
2019-01-03T02:04:30.209Z,72.59
2019-01-03T02:07:20.212Z,72.60
2019-01-03T02:10:09.622Z,72.79
2019-01-03T02:12:57.219Z,72.68
2019-01-03T02:15:41.776Z,72.69
2019-01-03T02:18:29.314Z,72.74
2019-01-03T02:21:20.471Z,72.72
2019-01-03T02:24:15.667Z,72.84
2019-01-03T02:27:05.432Z,73.16
2019-01-03T02:30:05.134Z,73.23
2019-01-03T02:33:03.864Z,73.43
2019-01-03T02:35:55.953Z,73.62
2019-01-03T02:39:02.055Z,73.71
2019-01-03T02:41:49.927Z,73.83
2019-01-03T02:44:42.134Z,74.06
2019-01-03T02:47:30.427Z,74.05
2019-01-03T02:50:26.857Z,73.93
2019-01-03T02:53:22.987Z,73.96
2019-01-03T02:56:25.906Z,74.00
2019-01-03T02:59:12.560Z,74.09
2019-01-03T03:02:14.268Z,74.02
2019-01-03T03:05:18.758Z,74.07
2019-01-03T03:08:07.826Z,73.85
2019-01-03T03:10:57.347Z,73.63
2019-01-03T03:14:00.462Z,73.68
2019-01-03T03:16:53.554Z,73.34
2019-01-03T03:19:39.473Z,73.35
2019-01-03T03:22:29.329Z,73.28
2019-01-03T03:25:30.301Z,73.14
2019-01-03T03:28:21.707Z,73.24
2019-01-03T03:31:26.966Z,73.26
2019-01-03T03:34:25.382Z,73.36
2019-01-03T03:37:17.383Z,73.48
2019-01-03T03:40:21.847Z,73.51
2019-01-03T03:43:09.332Z,73.55
2019-01-03T03:46:01.321Z,73.69
2019-01-03T03:49:08.407Z,73.72
2019-01-03T03:51:56.335Z,73.83
2019-01-03T03:57:44.546Z,74.03
2019-01-03T04:00:52.330Z,73.93
2019-01-03T04:03:56.675Z,73.81
2019-01-03T04:07:03.714Z,73.83
2019-01-03T04:09:52.779Z,73.71
2019-01-03T04:12:40.128Z,73.42
2019-01-03T04:15:41.690Z,73.45
2019-01-03T04:18:33.815Z,73.29
2019-01-03T04:21:26.137Z,73.19
2019-01-03T04:24:13.936Z,73.18
2019-01-03T04:27:01.488Z,73.21
2019-01-03T04:30:00.128Z,73.12
2019-01-03T04:32:58.931Z,72.93
2019-01-03T04:35:46.536Z,73.08
2019-01-03T04:38:34.143Z,72.95
2019-01-03T04:41:41.331Z,72.93
2019-01-03T04:44:24.905Z,72.74
2019-01-03T04:47:12.454Z,72.63
2019-01-03T04:50:00.602Z,72.73
2019-01-03T04:53:05.359Z,72.67
2019-01-03T04:55:53.771Z,72.39
2019-01-03T04:58:41.344Z,72.11
2019-01-03T05:02:19.624Z,72.39
2019-01-03T05:05:08.923Z,72.28
2019-01-03T05:08:04.613Z,72.19
2019-01-03T05:10:52.338Z,72.12
2019-01-03T05:13:51.786Z,72.08
2019-01-03T05:16:39.712Z,72.06
2019-01-03T05:19:35.759Z,72.00
2019-01-03T05:22:23.228Z,71.43
2019-01-03T05:25:12.585Z,71.10
2019-01-03T05:28:16.773Z,71.06
2019-01-03T05:31:05.760Z,70.76
2019-01-03T05:33:54.937Z,70.73
2019-01-03T05:36:50.233Z,70.17
2019-01-03T05:39:36.158Z,69.70
2019-01-03T05:42:34.549Z,69.93
2019-01-03T05:45:39.651Z,69.73
2019-01-03T05:48:38.673Z,69.56
2019-01-03T05:51:35.432Z,69.53
2019-01-03T05:54:24.696Z,69.56
2019-01-03T05:57:08.807Z,69.81
2019-01-03T06:00:07.546Z,69.60
2019-01-03T06:02:59.654Z,69.89
2019-01-03T06:05:45.034Z,69.92
2019-01-03T06:08:33.252Z,69.73
2019-01-03T06:11:25.821Z,69.88
2019-01-03T06:14:29.919Z,70.10
2019-01-03T06:17:31.404Z,69.95
2019-01-03T06:20:23.434Z,69.92
2019-01-03T06:23:14.241Z,69.67
2019-01-03T06:26:02.973Z,69.86
2019-01-03T06:29:35.891Z,69.89
2019-01-03T06:32:39.974Z,69.99
2019-01-03T06:35:27.928Z,70.02
2019-01-03T06:38:13.750Z,70.03
2019-01-03T06:41:00.080Z,69.90
2019-01-03T06:43:58.071Z,69.97
2019-01-03T06:46:53.611Z,69.97
2019-01-03T06:49:45.606Z,69.96
2019-01-03T06:52:33.479Z,70.05
2019-01-03T06:55:36.966Z,69.62
2019-01-03T06:58:38.176Z,69.83
2019-01-03T07:01:26.328Z,69.38
2019-01-03T07:04:15.798Z,68.99
2019-01-03T07:07:04.997Z,68.91
2019-01-03T07:09:52.790Z,69.18
2019-01-03T07:12:40.228Z,69.17
2019-01-03T07:15:30.205Z,69.08
2019-01-03T07:18:34.346Z,69.09
2019-01-03T07:21:27.419Z,69.45
2019-01-03T07:24:15.759Z,69.52
2019-01-03T07:27:07.906Z,69.64
2019-01-03T07:29:55.411Z,69.58
2019-01-03T07:32:59.730Z,69.68
2019-01-03T07:35:47.294Z,69.29
2019-01-03T07:38:42.398Z,69.30
2019-01-03T07:41:31.521Z,69.21
2019-01-03T07:44:23.642Z,69.12
2019-01-03T07:47:29.143Z,68.98
2019-01-03T07:50:14.658Z,68.74
2019-01-03T07:53:02.219Z,68.61
2019-01-03T07:55:51.262Z,68.30
2019-01-03T07:58:43.199Z,68.29
2019-01-03T08:01:32.674Z,68.20
2019-01-03T08:04:22.411Z,68.49
2019-01-03T08:07:20.346Z,68.36
2019-01-03T08:10:07.907Z,67.85
2019-01-03T08:12:59.901Z,68.07
2019-01-03T08:15:47.789Z,67.61
2019-01-03T08:18:35.538Z,67.22
2019-01-03T08:21:28.281Z,67.50
2019-01-03T08:24:26.616Z,66.86
2019-01-03T08:27:07.221Z,66.86
2019-01-03T08:29:54.808Z,66.39
2019-01-03T08:32:47.757Z,66.09
2019-01-03T08:35:31.321Z,65.76
2019-01-03T08:38:27.725Z,65.32
2019-01-03T08:41:15.304Z,65.18
2019-01-03T08:44:16.561Z,65.08
2019-01-03T08:47:21.955Z,63.89
2019-01-03T08:50:09.415Z,63.54
2019-01-03T08:52:56.918Z,63.35
2019-01-03T08:55:45.223Z,62.59
2019-01-03T08:58:46.861Z,61.93
2019-01-03T09:01:39.704Z,61.37
2019-01-03T09:04:31.658Z,61.72
2019-01-03T09:07:19.232Z,60.83
2019-01-03T09:10:18.263Z,60.67
2019-01-03T09:13:15.022Z,60.65
2019-01-03T09:16:07.883Z,60.86
2019-01-03T09:19:03.286Z,59.90
2019-01-03T09:21:45.196Z,59.71
2019-01-03T09:24:37.357Z,59.52
2019-01-03T09:27:29.446Z,59.33
2019-01-03T09:30:24.378Z,59.29
2019-01-03T09:33:11.979Z,58.61
2019-01-03T09:35:59.826Z,58.39
2019-01-03T09:38:47.903Z,58.81
2019-01-03T09:41:48.960Z,57.92
2019-01-03T09:44:43.659Z,58.36
2019-01-03T09:47:14.249Z,58.48
2019-01-03T09:49:44.765Z,58.58
2019-01-03T09:52:15.093Z,59.08
2019-01-03T09:54:45.484Z,58.61
2019-01-03T09:57:15.844Z,58.99
2019-01-03T09:59:46.227Z,59.05
2019-01-03T10:02:16.525Z,59.06
2019-01-03T10:04:47.414Z,58.56
2019-01-03T10:07:17.785Z,58.80
2019-01-03T10:09:48.187Z,58.76
2019-01-03T10:12:18.544Z,58.61
2019-01-03T10:14:48.906Z,58.45
2019-01-03T10:17:19.300Z,58.69
2019-01-03T10:19:52.997Z,57.95
2019-01-03T10:22:23.307Z,57.72
2019-01-03T10:24:53.695Z,57.87
2019-01-03T10:27:24.157Z,57.51
2019-01-03T10:29:54.462Z,57.46
2019-01-03T10:32:25.165Z,57.68
2019-01-03T10:34:55.469Z,57.98
2019-01-03T10:37:25.825Z,57.64
2019-01-03T10:39:56.115Z,57.21
2019-01-03T10:42:26.951Z,57.88
2019-01-03T10:44:57.588Z,56.87
2019-01-03T10:47:27.992Z,57.09
2019-01-03T10:49:58.295Z,56.90
2019-01-03T10:52:28.695Z,56.92
2019-01-03T10:54:58.984Z,56.86
2019-01-03T10:57:29.753Z,57.14
2019-01-03T11:00:00.734Z,56.67
2019-01-03T11:02:31.188Z,57.13
2019-01-03T11:05:01.711Z,57.42
2019-01-03T11:07:40.481Z,57.65
2019-01-03T11:10:17.862Z,57.60
2019-01-03T11:12:50.454Z,57.93
2019-01-03T11:15:32.010Z,58.00
2019-01-03T11:18:05.722Z,58.33
2019-01-03T11:20:39.190Z,58.21
2019-01-03T11:23:13.544Z,58.01
2019-01-03T11:25:50.675Z,57.72
2019-01-03T11:28:29.971Z,57.24
2019-01-03T11:31:02.094Z,56.83
2019-01-03T11:33:38.134Z,56.09
2019-01-03T11:36:37.715Z,55.56
2019-01-03T11:39:11.985Z,55.70
2019-01-03T11:41:43.516Z,55.76
2019-01-03T11:44:21.205Z,55.72
2019-01-03T11:46:56.188Z,55.76
2019-01-03T11:49:29.577Z,55.93
2019-01-03T11:52:02.024Z,55.67
2019-01-03T11:54:41.564Z,55.79
2019-01-03T11:57:15.420Z,55.98
2019-01-03T11:59:50.991Z,55.75
2019-01-03T12:02:27.127Z,56.13
2019-01-03T12:05:06.873Z,56.39
2019-01-03T12:07:43.846Z,56.14
2019-01-03T12:10:18.591Z,56.18
2019-01-03T12:12:52.536Z,57.02
2019-01-03T12:15:28.982Z,56.71
2019-01-03T12:18:02.049Z,57.17
2019-01-03T12:20:38.280Z,57.40
2019-01-03T12:23:13.728Z,57.62
2019-01-03T12:25:46.998Z,57.84
2019-01-03T12:28:21.655Z,58.12
2019-01-03T12:30:54.584Z,58.38
2019-01-03T12:33:30.044Z,58.14
2019-01-03T12:36:02.169Z,59.21
2019-01-03T12:38:32.642Z,58.68
2019-01-03T12:41:02.948Z,59.15
2019-01-03T12:43:33.401Z,58.85
2019-01-03T12:46:03.804Z,58.89
2019-01-03T12:48:34.151Z,58.93
2019-01-03T12:51:04.557Z,59.28
2019-01-03T12:53:34.838Z,58.99
2019-01-03T12:56:05.373Z,58.94
2019-01-03T12:58:35.761Z,59.10
2019-01-03T13:01:06.866Z,59.25
2019-01-03T13:03:37.204Z,59.17
2019-01-03T13:06:07.575Z,59.12
2019-01-03T13:08:37.846Z,59.07
2019-01-03T13:11:08.397Z,58.96
2019-01-03T13:13:39.054Z,58.96
2019-01-03T13:16:09.630Z,58.84
2019-01-03T13:18:40.176Z,58.55
2019-01-03T13:21:10.597Z,58.44
2019-01-03T13:23:41.001Z,58.30
2019-01-03T13:26:11.319Z,58.38
2019-01-03T13:28:41.726Z,58.39
2019-01-03T13:31:12.068Z,58.19
2019-01-03T13:33:42.441Z,58.13
2019-01-03T13:36:12.770Z,58.59
2019-01-03T13:38:43.203Z,58.43
2019-01-03T13:41:13.515Z,58.68
2019-01-03T13:43:46.765Z,58.34
2019-01-03T13:46:17.097Z,58.52
2019-01-03T13:48:47.514Z,58.51
2019-01-03T13:51:18.389Z,58.73
2019-01-03T13:53:48.920Z,58.85
2019-01-03T13:56:19.331Z,59.17
2019-01-03T13:58:49.741Z,59.02
2019-01-03T14:01:20.033Z,59.50
2019-01-03T14:03:50.387Z,59.95
2019-01-03T14:06:21.170Z,59.94
2019-01-03T14:08:51.526Z,59.79
2019-01-03T14:11:24.944Z,59.82
2019-01-03T14:13:55.346Z,60.28
2019-01-03T14:16:25.707Z,60.57
2019-01-03T14:18:56.018Z,60.88
2019-01-03T14:21:26.476Z,61.12
2019-01-03T14:23:56.768Z,61.63
2019-01-03T14:26:27.129Z,62.32
2019-01-03T14:28:57.474Z,62.65
2019-01-03T14:31:27.859Z,62.92
2019-01-03T14:33:58.177Z,62.75
2019-01-03T14:36:28.841Z,62.85
2019-01-03T14:38:59.735Z,63.06
2019-01-03T14:41:30.088Z,63.08
2019-01-03T14:44:00.411Z,63.54
2019-01-03T14:46:31.340Z,63.46
2019-01-03T14:49:01.661Z,63.42
2019-01-03T14:51:32.353Z,63.58
2019-01-03T14:54:02.759Z,63.81
2019-01-03T14:56:33.557Z,64.07
2019-01-03T14:59:03.970Z,64.29
2019-01-03T15:01:34.398Z,64.38
2019-01-03T15:04:05.787Z,64.65
2019-01-03T15:06:36.576Z,64.80
2019-01-03T15:09:08.359Z,65.08
2019-01-03T15:11:38.662Z,65.24
2019-01-03T15:14:09.098Z,65.42
2019-01-03T15:16:39.463Z,65.50
2019-01-03T15:19:10.001Z,65.74
2019-01-03T15:21:40.360Z,65.89
2019-01-03T15:24:10.741Z,66.28
2019-01-03T15:27:13.434Z,66.39
2019-01-03T15:29:45.376Z,66.58
2019-01-03T15:32:15.691Z,66.88
2019-01-03T15:34:46.167Z,67.03
2019-01-03T15:37:16.490Z,67.42
2019-01-03T15:39:46.913Z,67.56
2019-01-03T15:42:17.327Z,67.46
2019-01-03T15:44:47.984Z,67.56
2019-01-03T15:47:18.396Z,67.62
2019-01-03T15:49:48.721Z,67.58
2019-01-03T15:52:19.110Z,67.96
2019-01-03T15:54:49.970Z,68.25
2019-01-03T15:57:20.665Z,68.44
2019-01-03T15:59:51.128Z,68.44
2019-01-03T16:02:31.250Z,68.58
2019-01-03T16:05:12.286Z,68.49
2019-01-03T16:07:42.981Z,68.79
2019-01-03T16:10:13.326Z,68.76
2019-01-03T16:12:44.147Z,68.87
2019-01-03T16:15:14.922Z,68.84
2019-01-03T16:17:45.233Z,68.92
2019-01-03T16:20:15.632Z,69.14
2019-01-03T16:22:46.019Z,69.33
2019-01-03T16:25:16.534Z,69.39
2019-01-03T16:27:48.028Z,69.05
2019-01-03T16:30:18.738Z,69.19
2019-01-03T16:32:49.632Z,69.13
2019-01-03T16:35:20.517Z,69.21
2019-01-03T16:37:50.887Z,69.03
2019-01-03T16:40:21.190Z,69.02
2019-01-03T16:42:51.568Z,68.95
2019-01-03T16:45:22.463Z,68.88
2019-01-03T16:47:53.292Z,68.71
2019-01-03T16:50:23.680Z,68.74
2019-01-03T16:52:54.581Z,68.92
2019-01-03T16:55:24.979Z,69.09
2019-01-03T16:57:55.262Z,69.00
2019-01-03T17:00:25.701Z,68.87
2019-01-03T17:02:56.006Z,69.06
2019-01-03T17:05:26.392Z,69.12
2019-01-03T17:07:56.692Z,68.96
2019-01-03T17:10:27.601Z,69.04
2019-01-03T17:12:57.995Z,69.13
2019-01-03T17:15:28.325Z,68.94
2019-01-03T17:17:59.908Z,69.00
2019-01-03T17:20:30.223Z,69.18
2019-01-03T17:23:00.660Z,69.10
2019-01-03T17:25:31.569Z,69.39
2019-01-03T17:28:01.948Z,69.33
2019-01-03T17:30:32.247Z,69.52
2019-01-03T17:33:02.648Z,69.75
2019-01-03T17:35:34.861Z,69.96
2019-01-03T17:38:05.641Z,69.89
2019-01-03T17:40:36.192Z,70.13
2019-01-03T17:43:06.558Z,70.10
2019-01-03T17:45:36.995Z,70.25
2019-01-03T17:48:07.284Z,70.18
2019-01-03T17:50:37.712Z,70.25
2019-01-03T17:53:08.780Z,70.52
2019-01-03T17:55:39.073Z,70.60
2019-01-03T17:58:09.452Z,70.72
2019-01-03T18:00:47.629Z,70.67
2019-01-03T18:03:17.957Z,70.71
2019-01-03T18:05:49.272Z,70.88
2019-01-03T18:08:19.649Z,71.11
2019-01-03T18:10:49.929Z,71.25
2019-01-03T18:13:20.293Z,71.28
2019-01-03T18:15:50.653Z,71.30
2019-01-03T18:18:21.156Z,71.27
2019-01-03T18:20:51.798Z,71.33
2019-01-03T18:23:22.159Z,71.35
2019-01-03T18:25:52.482Z,71.39
2019-01-03T18:28:22.896Z,71.47
2019-01-03T18:30:53.290Z,71.43
2019-01-03T18:33:23.618Z,71.62
2019-01-03T18:35:53.988Z,71.81
2019-01-03T18:38:24.365Z,71.62
2019-01-03T18:40:54.763Z,71.75
2019-01-03T18:43:25.247Z,71.65
2019-01-03T18:45:55.649Z,71.67
2019-01-03T18:48:26.033Z,72.00
2019-01-03T18:50:56.310Z,71.97
2019-01-03T18:53:28.562Z,72.05
2019-01-03T18:55:58.895Z,72.30
2019-01-03T18:58:29.254Z,72.63
2019-01-03T19:00:59.547Z,72.79
2019-01-03T19:03:30.516Z,72.97
2019-01-03T19:06:02.792Z,73.06
2019-01-03T19:08:33.205Z,73.13
2019-01-03T19:11:03.729Z,73.29
2019-01-03T19:13:34.150Z,73.42
2019-01-03T19:16:05.164Z,73.38
2019-01-03T19:18:35.465Z,73.53
2019-01-03T19:21:05.865Z,73.69
2019-01-03T19:23:36.231Z,73.63
2019-01-03T19:26:07.067Z,73.78
2019-01-03T19:28:37.716Z,73.77
2019-01-03T19:31:08.868Z,73.84
2019-01-03T19:33:39.411Z,74.00
2019-01-03T19:36:11.314Z,74.11
2019-01-03T19:38:41.726Z,74.11
2019-01-03T19:41:12.094Z,74.13
2019-01-03T19:43:43.344Z,74.14
2019-01-03T19:46:13.821Z,74.13
2019-01-03T19:48:48.920Z,74.21
2019-01-03T19:51:19.289Z,74.45
2019-01-03T19:53:49.575Z,74.49
2019-01-03T19:56:20.416Z,74.57
2019-01-03T19:58:51.281Z,74.73
2019-01-03T20:01:21.699Z,74.80
2019-01-03T20:03:52.024Z,74.81
2019-01-03T20:06:22.438Z,74.93
2019-01-03T20:08:53.335Z,75.00
2019-01-03T20:11:23.715Z,75.25
2019-01-03T20:13:54.039Z,75.22
2019-01-03T20:16:24.420Z,75.32
2019-01-03T20:18:54.753Z,75.53
2019-01-03T20:21:25.651Z,75.65
2019-01-03T20:23:56.037Z,75.81
2019-01-03T20:26:26.384Z,75.77
2019-01-03T20:28:56.747Z,75.84
2019-01-03T20:31:27.119Z,75.88
2019-01-03T20:34:25.373Z,76.21
2019-01-03T20:36:55.787Z,76.51
2019-01-03T20:39:26.198Z,76.69
2019-01-03T20:41:56.639Z,76.83
2019-01-03T20:44:26.941Z,77.03
2019-01-03T20:46:57.267Z,77.23
2019-01-03T20:49:27.626Z,77.26
2019-01-03T20:51:57.931Z,77.40
2019-01-03T20:54:28.374Z,77.53
2019-01-03T20:56:58.749Z,77.78
2019-01-03T20:59:29.555Z,77.78
2019-01-03T21:01:59.947Z,77.90
2019-01-03T21:04:30.230Z,78.08
2019-01-03T21:07:00.590Z,78.15
2019-01-03T21:09:30.898Z,78.22
2019-01-03T21:12:01.316Z,78.09
2019-01-03T21:14:31.720Z,78.35
2019-01-03T21:17:02.345Z,78.37
2019-01-03T21:19:34.549Z,78.27
2019-01-03T21:22:04.836Z,78.26
2019-01-03T21:24:36.306Z,78.36
2019-01-03T21:27:06.791Z,78.56
2019-01-03T21:29:37.221Z,78.62
2019-01-03T21:32:07.547Z,78.54
2019-01-03T21:34:37.909Z,78.52
2019-01-03T21:37:08.899Z,78.54
2019-01-03T21:39:39.271Z,78.49
2019-01-03T21:42:09.689Z,78.44
2019-01-03T21:44:40.289Z,78.33
2019-01-03T21:47:11.750Z,78.24
2019-01-03T21:49:42.224Z,78.17
2019-01-03T21:52:12.608Z,78.00
2019-01-03T21:54:42.965Z,77.91
2019-01-03T21:57:13.778Z,77.91
2019-01-03T21:59:44.140Z,78.04
2019-01-03T22:02:16.841Z,77.96
2019-01-03T22:04:47.198Z,77.97
2019-01-03T22:07:18.055Z,78.00
2019-01-03T22:09:48.380Z,78.19
2019-01-03T22:12:18.753Z,78.19
2019-01-03T22:14:49.530Z,78.20
2019-01-03T22:17:19.956Z,78.09
2019-01-03T22:19:51.468Z,78.05
2019-01-03T22:22:24.549Z,78.19
2019-01-03T22:24:54.949Z,78.25
2019-01-03T22:27:26.352Z,78.17
2019-01-03T22:29:56.803Z,78.34
2019-01-03T22:32:28.055Z,78.26
2019-01-03T22:34:58.523Z,78.48
2019-01-03T22:37:28.902Z,78.51
2019-01-03T22:39:59.296Z,78.53
2019-01-03T22:42:30.380Z,78.49
2019-01-03T22:45:00.670Z,78.45
2019-01-03T22:47:31.801Z,78.59
2019-01-03T22:50:02.129Z,78.57
2019-01-03T22:52:32.479Z,78.63
2019-01-03T22:55:02.809Z,78.67
2019-01-03T22:57:33.173Z,78.75
2019-01-03T23:00:04.559Z,78.75
2019-01-03T23:02:34.972Z,78.70
2019-01-03T23:05:06.035Z,78.52
2019-01-03T23:08:06.857Z,78.57
2019-01-03T23:10:37.490Z,78.50
2019-01-03T23:13:07.933Z,78.29
2019-01-03T23:15:38.254Z,78.15
2019-01-03T23:18:08.709Z,77.97
2019-01-03T23:20:39.062Z,78.15
2019-01-03T23:23:11.309Z,77.98
2019-01-03T23:25:42.349Z,77.86
2019-01-03T23:28:12.727Z,77.72
2019-01-03T23:30:43.136Z,77.80
2019-01-03T23:33:13.502Z,77.83
2019-01-03T23:35:45.657Z,77.97
2019-01-03T23:38:16.051Z,77.99
2019-01-03T23:40:49.005Z,78.04
2019-01-03T23:43:19.576Z,78.41
2019-01-03T23:45:50.386Z,78.55
2019-01-03T23:48:20.677Z,78.71
2019-01-03T23:50:51.045Z,78.37
2019-01-03T23:53:21.554Z,78.25
2019-01-03T23:55:56.171Z,78.26
2019-01-03T23:58:26.510Z,78.24
